createdAt,value
2022-10-12T00:04:26.048Z,2.30
2022-10-12T00:09:29.019Z,2.17
2022-10-12T00:14:31.136Z,2.13
2022-10-12T00:19:33.283Z,1.43
2022-10-12T00:24:40.606Z,1.90
2022-10-12T00:29:44.675Z,1.70
2022-10-12T00:34:46.316Z,1.93
2022-10-12T00:39:49.614Z,2.20
2022-10-12T00:44:51.837Z,2.10
2022-10-12T00:49:58.009Z,1.80
2022-10-12T00:55:01.742Z,1.90
2022-10-12T01:00:06.766Z,2.00
2022-10-12T01:05:09.593Z,2.33
2022-10-12T01:10:13.495Z,1.80
2022-10-12T01:15:16.011Z,1.70
2022-10-12T01:20:34.534Z,2.33
2022-10-12T01:25:50.054Z,1.87
2022-10-12T01:30:59.520Z,2.27
2022-10-12T01:36:09.731Z,1.90
2022-10-12T01:41:18.285Z,1.83
2022-10-12T01:46:55.356Z,2.07
2022-10-12T01:52:32.111Z,1.77
2022-10-12T01:58:00.777Z,1.47
2022-10-12T02:03:16.097Z,1.70
2022-10-12T02:08:26.417Z,1.80
2022-10-12T02:13:35.883Z,1.63
2022-10-12T02:18:45.925Z,2.13
2022-10-12T02:23:53.756Z,1.67
2022-10-12T02:28:59.088Z,1.80
2022-10-12T02:34:12.055Z,1.93
2022-10-12T02:39:24.509Z,1.77
2022-10-12T02:44:32.809Z,1.63
2022-10-12T02:49:44.627Z,2.00
2022-10-12T02:54:49.382Z,2.00
2022-10-12T02:59:52.282Z,2.33
2022-10-12T03:04:55.573Z,2.10
2022-10-12T03:09:59.856Z,1.67
2022-10-12T03:15:05.572Z,2.37
2022-10-12T03:20:13.238Z,2.20
2022-10-12T03:25:18.859Z,1.73
2022-10-12T03:30:24.040Z,1.53
2022-10-12T03:35:27.687Z,2.10
2022-10-12T03:40:30.485Z,1.90
2022-10-12T03:45:32.787Z,2.07
2022-10-12T03:50:40.676Z,1.70
2022-10-12T03:55:44.983Z,2.03
2022-10-12T04:00:46.934Z,2.00
2022-10-12T04:05:54.781Z,1.77
2022-10-12T04:10:57.026Z,2.03
2022-10-12T04:16:02.270Z,1.80
2022-10-12T04:21:09.274Z,1.60
2022-10-12T04:26:11.259Z,1.80
2022-10-12T04:31:13.010Z,1.70
2022-10-12T04:36:16.289Z,1.60
2022-10-12T04:41:18.289Z,1.73
2022-10-12T04:46:20.396Z,1.90
2022-10-12T04:51:23.838Z,1.40
2022-10-12T04:56:26.143Z,1.40
2022-10-12T05:01:28.201Z,1.70
2022-10-12T05:06:31.594Z,2.00
2022-10-12T05:11:33.232Z,1.70
2022-10-12T05:16:34.905Z,1.53
2022-10-12T05:21:37.904Z,1.80
2022-10-12T05:26:40.281Z,1.73
2022-10-12T05:31:41.961Z,1.40
2022-10-12T05:36:45.363Z,2.00
2022-10-12T05:41:47.398Z,1.63
2022-10-12T05:46:49.083Z,1.90
2022-10-12T05:51:52.475Z,1.77
2022-10-12T05:56:54.544Z,1.40
2022-10-12T06:01:56.308Z,1.10
2022-10-12T06:06:59.685Z,1.77
2022-10-12T06:12:01.441Z,1.83
2022-10-12T06:17:03.488Z,1.70
2022-10-12T06:22:07.600Z,1.83
2022-10-12T06:27:09.658Z,1.90
2022-10-12T06:32:11.506Z,1.77
2022-10-12T06:37:37.067Z,2.23
2022-10-12T06:42:36.426Z,2.30
2022-10-12T06:47:38.365Z,1.87
2022-10-12T06:52:41.464Z,2.00
2022-10-12T06:57:43.206Z,2.23
2022-10-12T07:02:45.143Z,2.00
2022-10-12T07:07:48.090Z,2.10
2022-10-12T07:12:49.702Z,2.00
2022-10-12T07:17:51.383Z,2.03
2022-10-12T07:22:54.365Z,1.77
2022-10-12T07:27:56.264Z,1.77
2022-10-12T07:32:58.340Z,2.20
2022-10-12T07:38:01.681Z,2.50
2022-10-12T07:43:15.776Z,3.03
2022-10-12T07:48:18.101Z,2.90
2022-10-12T07:53:21.559Z,2.40
2022-10-12T07:58:23.295Z,2.90
2022-10-12T08:03:24.935Z,2.10
2022-10-12T08:08:27.911Z,2.33
2022-10-12T08:13:30.108Z,2.37
2022-10-12T08:18:32.123Z,2.10
2022-10-12T08:23:36.819Z,1.70
2022-10-12T08:28:39.003Z,2.40
2022-10-12T08:33:41.246Z,1.77
2022-10-12T08:38:44.458Z,2.70
2022-10-12T08:44:02.607Z,2.47
2022-10-12T08:49:08.580Z,2.73
2022-10-12T08:54:14.279Z,2.63
2022-10-12T08:59:19.086Z,2.67
2022-10-12T09:04:40.456Z,1.93
2022-10-12T09:09:56.410Z,1.73
2022-10-12T09:15:02.193Z,1.57
2022-10-12T09:20:10.929Z,1.70
2022-10-12T09:25:15.618Z,2.10
2022-10-12T09:30:20.132Z,1.73
2022-10-12T09:35:22.570Z,2.30
2022-10-12T09:40:28.970Z,1.53
2022-10-12T09:45:33.293Z,1.90
2022-10-12T09:50:40.423Z,1.33
2022-10-12T09:55:53.578Z,0.87
2022-10-12T10:01:18.576Z,1.20
2022-10-12T10:06:24.797Z,1.00
2022-10-12T10:11:29.038Z,1.17
2022-10-12T10:16:31.003Z,1.25
2022-10-12T10:21:35.037Z,1.27
2022-10-12T10:26:55.048Z,1.10
2022-10-12T10:32:08.479Z,1.10
2022-10-12T10:37:17.182Z,0.90
2022-10-12T10:42:25.617Z,0.85
2022-10-12T10:47:29.114Z,1.10
2022-10-12T10:52:33.379Z,1.15
2022-10-12T10:57:40.310Z,1.33
2022-10-12T11:02:48.860Z,1.00
2022-10-12T11:07:53.848Z,1.07
2022-10-12T11:13:03.189Z,0.90
2022-10-12T11:18:14.115Z,0.80
2022-10-12T11:23:24.919Z,1.00
2022-10-12T11:28:30.998Z,1.30
2022-10-12T11:33:36.891Z,1.10
2022-10-12T11:38:42.372Z,0.73
2022-10-12T11:43:51.213Z,1.27
2022-10-12T11:48:58.460Z,1.30
2022-10-12T11:54:08.774Z,1.10
2022-10-12T11:59:19.180Z,1.23
2022-10-12T12:04:41.643Z,1.17
2022-10-12T12:09:50.116Z,0.77
2022-10-12T12:15:22.164Z,0.90
2022-10-12T12:21:01.654Z,0.90
2022-10-12T12:26:23.348Z,0.90
2022-10-12T12:31:28.148Z,1.37
2022-10-12T12:36:33.465Z,0.83
2022-10-12T12:41:55.126Z,0.70
2022-10-12T12:52:40.094Z,0.80
2022-10-12T12:58:01.153Z,1.00
2022-10-12T13:03:44.625Z,0.87
2022-10-12T13:09:01.824Z,0.90
2022-10-12T13:14:19.639Z,0.60
2022-10-12T13:19:24.348Z,0.57
2022-10-12T13:24:30.043Z,0.80
2022-10-12T13:29:36.351Z,0.60
2022-10-12T13:34:43.615Z,1.27
2022-10-12T13:39:46.118Z,1.57
2022-10-12T13:44:48.878Z,0.90
2022-10-12T13:49:52.489Z,0.60
2022-10-12T13:54:54.676Z,1.00
2022-10-12T13:59:59.145Z,0.73
2022-10-12T14:05:04.045Z,1.10
2022-10-12T14:10:08.927Z,0.90
2022-10-12T14:15:13.943Z,0.90
2022-10-12T14:20:27.013Z,1.10
2022-10-12T14:25:30.434Z,1.20
2022-10-12T14:30:35.114Z,1.23
2022-10-12T14:35:39.784Z,0.87
2022-10-12T14:40:42.248Z,0.90
2022-10-12T14:45:44.535Z,0.90
2022-10-12T14:50:47.852Z,0.90
2022-10-12T14:55:53.781Z,1.10
2022-10-12T15:00:57.561Z,0.97
2022-10-12T15:06:02.949Z,0.80
2022-10-12T15:11:05.106Z,1.00
2022-10-12T15:16:18.583Z,0.90
2022-10-12T15:21:22.202Z,1.20
2022-10-12T15:26:24.497Z,1.13
2022-10-12T15:31:26.180Z,1.00
2022-10-12T15:36:29.755Z,1.40
2022-10-12T15:41:32.394Z,1.00
2022-10-12T15:46:34.144Z,0.83
2022-10-12T15:51:40.521Z,0.87
2022-10-12T15:56:42.655Z,0.90
2022-10-12T16:01:44.576Z,1.00
2022-10-12T16:06:47.912Z,1.20
2022-10-12T16:11:50.189Z,0.90
2022-10-12T16:16:51.908Z,1.20
2022-10-12T16:21:55.418Z,0.87
2022-10-12T16:26:57.475Z,1.00
2022-10-12T16:31:59.480Z,1.40
2022-10-12T16:37:02.915Z,1.07
2022-10-12T16:42:05.039Z,1.00
2022-10-12T16:47:06.706Z,1.03
2022-10-12T16:52:09.693Z,1.30
2022-10-12T16:57:11.506Z,0.97
2022-10-12T17:02:14.434Z,1.10
2022-10-12T17:07:17.766Z,1.40
2022-10-12T17:12:20.096Z,1.20
2022-10-12T17:17:22.206Z,1.07
2022-10-12T17:22:25.737Z,1.30
2022-10-12T17:27:32.084Z,1.40
2022-10-12T17:32:34.002Z,1.07
2022-10-12T17:37:37.475Z,1.30
2022-10-12T17:42:39.371Z,1.60
2022-10-12T17:47:41.247Z,1.43
2022-10-12T17:52:44.573Z,1.10
2022-10-12T17:57:46.401Z,1.80
2022-10-12T18:02:48.290Z,1.40
2022-10-12T18:07:51.908Z,1.27
2022-10-12T18:12:54.427Z,1.40
2022-10-12T18:17:59.784Z,1.47
2022-10-12T18:23:02.878Z,1.27
2022-10-12T18:28:05.159Z,0.90
2022-10-12T18:33:07.180Z,1.60
2022-10-12T18:38:11.026Z,1.73
2022-10-12T18:43:14.108Z,1.00
2022-10-12T18:48:15.942Z,1.50
2022-10-12T18:53:19.248Z,1.27
2022-10-12T18:58:21.385Z,1.37
2022-10-12T19:03:24.506Z,2.00
2022-10-12T19:08:28.996Z,2.37
2022-10-12T19:13:31.118Z,1.93
2022-10-12T19:18:33.326Z,1.47
2022-10-12T19:23:37.632Z,1.90
2022-10-12T19:28:41.172Z,1.40
2022-10-12T19:33:43.701Z,1.27
2022-10-12T19:38:47.457Z,1.43
2022-10-12T19:43:49.739Z,1.23
2022-10-12T19:48:53.259Z,1.47
2022-10-12T19:53:58.581Z,1.57
2022-10-12T19:59:00.319Z,1.57
2022-10-12T20:04:04.337Z,1.47
2022-10-12T20:09:08.342Z,1.40
2022-10-12T20:14:10.921Z,1.53
2022-10-12T20:19:12.622Z,1.83
2022-10-12T20:24:16.010Z,1.60
2022-10-12T20:29:18.674Z,1.87
2022-10-12T20:34:20.614Z,1.70
2022-10-12T20:39:23.766Z,1.40
2022-10-12T20:44:26.504Z,1.40
2022-10-12T20:49:28.621Z,1.63
2022-10-12T20:54:31.687Z,1.70
2022-10-12T20:59:33.885Z,1.80
2022-10-12T21:04:38.385Z,1.27
2022-10-12T21:09:41.900Z,1.50
2022-10-12T21:14:43.585Z,1.27
2022-10-12T21:19:45.478Z,1.40
2022-10-12T21:24:48.500Z,1.50
2022-10-12T21:29:50.671Z,1.50
2022-10-12T21:34:52.344Z,1.77
2022-10-12T21:39:55.554Z,1.87
2022-10-12T21:44:57.736Z,1.63
2022-10-12T21:49:59.683Z,1.70
2022-10-12T21:55:03.324Z,1.60
2022-10-12T22:00:06.065Z,1.60
2022-10-12T22:05:08.321Z,1.67
2022-10-12T22:10:12.308Z,2.20
2022-10-12T22:15:14.125Z,1.57
2022-10-12T22:20:16.196Z,2.27
2022-10-12T22:25:19.864Z,1.63
2022-10-12T22:30:22.088Z,2.00
2022-10-12T22:35:24.345Z,1.60
2022-10-12T22:40:27.735Z,1.60
2022-10-12T22:45:31.039Z,1.93
2022-10-12T22:50:33.666Z,2.20
2022-10-12T22:55:37.086Z,1.77
2022-10-12T23:00:39.580Z,1.37
2022-10-12T23:05:48.694Z,2.40
2022-10-12T23:10:52.276Z,2.00
2022-10-12T23:15:54.425Z,1.60
2022-10-12T23:20:56.553Z,1.87
2022-10-12T23:26:00.584Z,1.90
2022-10-12T23:31:03.149Z,2.03
2022-10-12T23:36:07.350Z,1.97
2022-10-12T23:41:12.211Z,2.13
2022-10-12T23:46:14.405Z,2.00
2022-10-12T23:51:16.705Z,2.30
2022-10-12T23:56:20.747Z,2.27
